Hillman, Ohio
Current Conditions -  °F | °C
As of 8:15 PM on Thursday 27 Nov 2014 (Local Time) from KFGX Reporting Station
Overcast Overcast  
Wind Chill: -5°   Ceiling: 4900
Heat Index: -2°   Visibility: 7mi
Dew Point: -4°   Wind: 7mph
Humidity: 86%   Direction: 280°W
Pressure: 30.37"   Gusts: NA
Location:  38.8698°N, 83.9081°W
Report Text: KFGX 280115Z AUTO 28006KT 7SM SCT034 OVC049 M01/M03 A3037 RMK AO2 T10151035
Loading
Personal Weather Stations






























Interactive Weather Map New forecast layout! Learn more

10-Day Weather Forecast

Advertisements
Track Severe Weather on mobile